sensor_id;sensor_type;location;lat;lon;timestamp;temperature;humidity
790;DHT22;378;48.844;9.156;2023-04-03T00:01:42;3.80;99.90
790;DHT22;378;48.844;9.156;2023-04-03T00:04:09;3.70;99.90
790;DHT22;378;48.844;9.156;2023-04-03T00:06:37;3.70;99.90
790;DHT22;378;48.844;9.156;2023-04-03T00:09:04;3.70;99.90
790;DHT22;378;48.844;9.156;2023-04-03T00:11:31;3.70;99.90
790;DHT22;378;48.844;9.156;2023-04-03T00:13:57;3.60;99.90
790;DHT22;378;48.844;9.156;2023-04-03T00:16:24;3.50;99.90
790;DHT22;378;48.844;9.156;2023-04-03T00:18:51;3.50;99.90
790;DHT22;378;48.844;9.156;2023-04-03T00:21:18;3.60;99.90
790;DHT22;378;48.844;9.156;2023-04-03T00:23:46;3.60;99.90
790;DHT22;378;48.844;9.156;2023-04-03T00:26:13;3.60;99.90
790;DHT22;378;48.844;9.156;2023-04-03T00:28:40;3.70;99.90
790;DHT22;378;48.844;9.156;2023-04-03T00:31:07;3.60;99.90
790;DHT22;378;48.844;9.156;2023-04-03T00:33:33;3.60;99.90
790;DHT22;378;48.844;9.156;2023-04-03T00:36:05;3.60;99.90
790;DHT22;378;48.844;9.156;2023-04-03T00:38:32;3.60;99.90
790;DHT22;378;48.844;9.156;2023-04-03T00:41:01;3.60;99.90
790;DHT22;378;48.844;9.156;2023-04-03T00:43:28;3.60;99.90
790;DHT22;378;48.844;9.156;2023-04-03T00:45:56;3.60;99.90
790;DHT22;378;48.844;9.156;2023-04-03T00:48:27;3.60;99.90
790;DHT22;378;48.844;9.156;2023-04-03T00:50:55;3.60;99.90
790;DHT22;378;48.844;9.156;2023-04-03T00:53:24;3.60;99.90
790;DHT22;378;48.844;9.156;2023-04-03T00:55:54;3.50;99.90
790;DHT22;378;48.844;9.156;2023-04-03T00:58:28;3.50;99.90
790;DHT22;378;48.844;9.156;2023-04-03T01:00:58;3.60;99.90
790;DHT22;378;48.844;9.156;2023-04-03T01:03:29;3.50;99.90
790;DHT22;378;48.844;9.156;2023-04-03T01:05:57;3.50;99.90
790;DHT22;378;48.844;9.156;2023-04-03T01:08:24;3.40;99.90
790;DHT22;378;48.844;9.156;2023-04-03T01:10:51;3.40;99.90
790;DHT22;378;48.844;9.156;2023-04-03T01:13:24;3.50;99.90
790;DHT22;378;48.844;9.156;2023-04-03T01:15:52;3.40;99.90
790;DHT22;378;48.844;9.156;2023-04-03T01:18:19;3.40;99.90
790;DHT22;378;48.844;9.156;2023-04-03T01:23:57;3.40;99.90
790;DHT22;378;48.844;9.156;2023-04-03T01:26:25;3.40;99.90
790;DHT22;378;48.844;9.156;2023-04-03T01:28:55;3.40;99.90
790;DHT22;378;48.844;9.156;2023-04-03T01:31:24;3.30;99.90
790;DHT22;378;48.844;9.156;2023-04-03T01:33:54;3.30;99.90
790;DHT22;378;48.844;9.156;2023-04-03T01:36:23;3.20;99.90
790;DHT22;378;48.844;9.156;2023-04-03T01:38:51;3.30;99.90
790;DHT22;378;48.844;9.156;2023-04-03T01:41:18;3.30;99.90
790;DHT22;378;48.844;9.156;2023-04-03T01:43:46;3.30;99.90
790;DHT22;378;48.844;9.156;2023-04-03T01:46:14;3.20;99.90
790;DHT22;378;48.844;9.156;2023-04-03T01:48:41;3.20;99.90
790;DHT22;378;48.844;9.156;2023-04-03T01:51:10;3.30;99.90
790;DHT22;378;48.844;9.156;2023-04-03T01:53:36;3.20;99.90
790;DHT22;378;48.844;9.156;2023-04-03T01:56:04;3.20;99.90
790;DHT22;378;48.844;9.156;2023-04-03T01:58:31;3.20;99.90
790;DHT22;378;48.844;9.156;2023-04-03T02:00:58;3.20;99.90
790;DHT22;378;48.844;9.156;2023-04-03T02:03:24;3.10;99.90
790;DHT22;378;48.844;9.156;2023-04-03T02:05:51;3.10;99.90
790;DHT22;378;48.844;9.156;2023-04-03T02:08:20;3.10;99.90
790;DHT22;378;48.844;9.156;2023-04-03T02:10:47;3.10;99.90
790;DHT22;378;48.844;9.156;2023-04-03T02:13:14;3.10;99.90
790;DHT22;378;48.844;9.156;2023-04-03T02:15:41;3.20;99.90
790;DHT22;378;48.844;9.156;2023-04-03T02:18:08;3.20;99.90
790;DHT22;378;48.844;9.156;2023-04-03T02:20:35;3.30;99.90
790;DHT22;378;48.844;9.156;2023-04-03T02:23:02;3.30;99.90
790;DHT22;378;48.844;9.156;2023-04-03T02:25:31;3.30;99.90
790;DHT22;378;48.844;9.156;2023-04-03T02:27:58;3.30;99.90
790;DHT22;378;48.844;9.156;2023-04-03T02:30:25;3.30;99.90
790;DHT22;378;48.844;9.156;2023-04-03T02:32:53;3.30;99.90
790;DHT22;378;48.844;9.156;2023-04-03T02:35:20;3.30;99.90
790;DHT22;378;48.844;9.156;2023-04-03T02:37:46;3.30;99.90
790;DHT22;378;48.844;9.156;2023-04-03T02:40:13;3.30;99.90
790;DHT22;378;48.844;9.156;2023-04-03T02:42:42;3.30;99.90
790;DHT22;378;48.844;9.156;2023-04-03T02:45:09;3.30;99.90
790;DHT22;378;48.844;9.156;2023-04-03T02:47:36;3.40;99.90
790;DHT22;378;48.844;9.156;2023-04-03T02:50:03;3.40;99.90
790;DHT22;378;48.844;9.156;2023-04-03T02:52:30;3.50;99.90
790;DHT22;378;48.844;9.156;2023-04-03T02:54:57;3.50;99.90
790;DHT22;378;48.844;9.156;2023-04-03T02:57:24;3.50;99.90
790;DHT22;378;48.844;9.156;2023-04-03T02:59:52;3.50;99.90
790;DHT22;378;48.844;9.156;2023-04-03T03:02:19;3.50;99.90
790;DHT22;378;48.844;9.156;2023-04-03T03:04:46;3.50;99.90
790;DHT22;378;48.844;9.156;2023-04-03T03:07:13;3.50;99.90
790;DHT22;378;48.844;9.156;2023-04-03T03:09:40;3.50;99.90
790;DHT22;378;48.844;9.156;2023-04-03T03:12:07;3.50;99.90
790;DHT22;378;48.844;9.156;2023-04-03T03:14:33;3.50;99.90
790;DHT22;378;48.844;9.156;2023-04-03T03:17:02;3.50;99.90
790;DHT22;378;48.844;9.156;2023-04-03T03:19:28;3.50;99.90
790;DHT22;378;48.844;9.156;2023-04-03T03:21:55;3.50;99.90
790;DHT22;378;48.844;9.156;2023-04-03T03:24:22;3.50;99.90
790;DHT22;378;48.844;9.156;2023-04-03T03:26:49;3.50;99.90
790;DHT22;378;48.844;9.156;2023-04-03T03:29:16;3.50;99.90
790;DHT22;378;48.844;9.156;2023-04-03T03:31:43;3.40;99.90
790;DHT22;378;48.844;9.156;2023-04-03T03:34:11;3.50;99.90
790;DHT22;378;48.844;9.156;2023-04-03T03:36:38;3.40;99.90
790;DHT22;378;48.844;9.156;2023-04-03T03:39:06;3.40;99.90
790;DHT22;378;48.844;9.156;2023-04-03T03:41:33;3.50;99.90
790;DHT22;378;48.844;9.156;2023-04-03T03:43:59;3.50;99.90
790;DHT22;378;48.844;9.156;2023-04-03T03:46:26;3.40;99.90
790;DHT22;378;48.844;9.156;2023-04-03T03:48:53;3.40;99.90
790;DHT22;378;48.844;9.156;2023-04-03T03:51:21;3.40;99.90
790;DHT22;378;48.844;9.156;2023-04-03T03:53:48;3.40;99.90
790;DHT22;378;48.844;9.156;2023-04-03T03:56:15;3.40;99.90
790;DHT22;378;48.844;9.156;2023-04-03T03:58:42;3.40;99.90
790;DHT22;378;48.844;9.156;2023-04-03T04:01:08;3.40;99.90
790;DHT22;378;48.844;9.156;2023-04-03T04:03:35;3.40;99.90
790;DHT22;378;48.844;9.156;2023-04-03T04:06:02;3.40;99.90
790;DHT22;378;48.844;9.156;2023-04-03T04:08:30;3.40;99.90
790;DHT22;378;48.844;9.156;2023-04-03T04:10:57;3.40;99.90
790;DHT22;378;48.844;9.156;2023-04-03T04:13:24;3.40;99.90
790;DHT22;378;48.844;9.156;2023-04-03T04:15:51;3.50;99.90
790;DHT22;378;48.844;9.156;2023-04-03T04:18:18;3.50;99.90
790;DHT22;378;48.844;9.156;2023-04-03T04:20:45;3.40;99.90
790;DHT22;378;48.844;9.156;2023-04-03T04:23:12;3.40;99.90
790;DHT22;378;48.844;9.156;2023-04-03T04:25:40;3.40;99.90
790;DHT22;378;48.844;9.156;2023-04-03T04:28:07;3.40;99.90
790;DHT22;378;48.844;9.156;2023-04-03T04:30:34;3.40;99.90
790;DHT22;378;48.844;9.156;2023-04-03T04:33:01;3.40;99.90
790;DHT22;378;48.844;9.156;2023-04-03T04:35:28;3.40;99.90
790;DHT22;378;48.844;9.156;2023-04-03T04:37:55;3.40;99.90
790;DHT22;378;48.844;9.156;2023-04-03T04:40:22;3.40;99.90
790;DHT22;378;48.844;9.156;2023-04-03T04:42:50;3.40;99.90
790;DHT22;378;48.844;9.156;2023-04-03T04:45:17;3.40;99.90
790;DHT22;378;48.844;9.156;2023-04-03T04:47:44;3.40;99.90
790;DHT22;378;48.844;9.156;2023-04-03T04:50:11;3.40;99.90
790;DHT22;378;48.844;9.156;2023-04-03T04:52:38;3.40;99.90
790;DHT22;378;48.844;9.156;2023-04-03T04:55:05;3.40;99.90
790;DHT22;378;48.844;9.156;2023-04-03T04:57:32;3.40;99.90
790;DHT22;378;48.844;9.156;2023-04-03T05:00:01;3.40;99.90
790;DHT22;378;48.844;9.156;2023-04-03T05:02:29;3.40;99.90
790;DHT22;378;48.844;9.156;2023-04-03T05:04:56;3.40;99.90
790;DHT22;378;48.844;9.156;2023-04-03T05:07:23;3.40;99.90
790;DHT22;378;48.844;9.156;2023-04-03T05:09:49;3.50;99.90
790;DHT22;378;48.844;9.156;2023-04-03T05:12:17;3.40;99.90
790;DHT22;378;48.844;9.156;2023-04-03T05:14:43;3.50;99.90
790;DHT22;378;48.844;9.156;2023-04-03T05:17:12;3.50;99.90
790;DHT22;378;48.844;9.156;2023-04-03T05:19:38;3.50;99.90
790;DHT22;378;48.844;9.156;2023-04-03T05:22:05;3.50;99.90
790;DHT22;378;48.844;9.156;2023-04-03T05:24:32;3.50;99.90
790;DHT22;378;48.844;9.156;2023-04-03T05:26:59;3.60;99.90
790;DHT22;378;48.844;9.156;2023-04-03T05:29:26;3.50;99.90
790;DHT22;378;48.844;9.156;2023-04-03T05:31:53;3.50;99.90
790;DHT22;378;48.844;9.156;2023-04-03T05:34:21;3.50;99.90
790;DHT22;378;48.844;9.156;2023-04-03T05:36:48;3.60;99.90
790;DHT22;378;48.844;9.156;2023-04-03T05:39:15;3.60;99.90
790;DHT22;378;48.844;9.156;2023-04-03T05:41:41;3.60;99.90
790;DHT22;378;48.844;9.156;2023-04-03T05:44:08;3.60;99.90
790;DHT22;378;48.844;9.156;2023-04-03T05:46:35;3.60;99.90
790;DHT22;378;48.844;9.156;2023-04-03T05:49:02;3.60;99.90
790;DHT22;378;48.844;9.156;2023-04-03T05:51:32;3.50;99.90
790;DHT22;378;48.844;9.156;2023-04-03T05:54:04;3.60;99.90
790;DHT22;378;48.844;9.156;2023-04-03T05:56:32;3.60;99.90
790;DHT22;378;48.844;9.156;2023-04-03T05:58:59;3.60;99.90
790;DHT22;378;48.844;9.156;2023-04-03T06:01:26;3.60;99.90
790;DHT22;378;48.844;9.156;2023-04-03T06:03:53;3.70;99.90
790;DHT22;378;48.844;9.156;2023-04-03T06:06:21;3.70;99.90
790;DHT22;378;48.844;9.156;2023-04-03T06:08:49;3.80;99.90
790;DHT22;378;48.844;9.156;2023-04-03T06:11:16;3.70;99.90
790;DHT22;378;48.844;9.156;2023-04-03T06:13:43;3.70;99.90
790;DHT22;378;48.844;9.156;2023-04-03T06:16:12;3.70;99.90
790;DHT22;378;48.844;9.156;2023-04-03T06:18:40;3.70;99.90
790;DHT22;378;48.844;9.156;2023-04-03T06:21:07;3.80;99.90
790;DHT22;378;48.844;9.156;2023-04-03T06:23:34;3.70;99.90
790;DHT22;378;48.844;9.156;2023-04-03T06:26:03;3.70;99.90
790;DHT22;378;48.844;9.156;2023-04-03T06:28:31;3.60;99.90
790;DHT22;378;48.844;9.156;2023-04-03T06:30:57;3.50;99.90
790;DHT22;378;48.844;9.156;2023-04-03T06:33:24;3.50;99.90
790;DHT22;378;48.844;9.156;2023-04-03T06:35:56;3.60;99.90
790;DHT22;378;48.844;9.156;2023-04-03T06:38:23;3.50;99.90
790;DHT22;378;48.844;9.156;2023-04-03T06:40:50;3.50;99.90
790;DHT22;378;48.844;9.156;2023-04-03T06:43:19;3.60;99.90
790;DHT22;378;48.844;9.156;2023-04-03T06:45:46;3.60;99.90
790;DHT22;378;48.844;9.156;2023-04-03T06:48:13;3.70;99.90
790;DHT22;378;48.844;9.156;2023-04-03T06:50:40;3.70;99.90
790;DHT22;378;48.844;9.156;2023-04-03T06:53:08;3.80;99.90
790;DHT22;378;48.844;9.156;2023-04-03T06:55:35;3.80;99.90
790;DHT22;378;48.844;9.156;2023-04-03T06:58:02;3.80;99.90
790;DHT22;378;48.844;9.156;2023-04-03T07:00:31;3.80;99.90
790;DHT22;378;48.844;9.156;2023-04-03T07:02:58;3.90;99.90
790;DHT22;378;48.844;9.156;2023-04-03T07:05:25;3.90;99.90
790;DHT22;378;48.844;9.156;2023-04-03T07:07:52;3.90;99.90
790;DHT22;378;48.844;9.156;2023-04-03T07:10:19;4.00;99.90
790;DHT22;378;48.844;9.156;2023-04-03T07:12:46;4.00;99.90
790;DHT22;378;48.844;9.156;2023-04-03T07:15:14;4.00;99.90
790;DHT22;378;48.844;9.156;2023-04-03T07:17:42;4.10;99.90
790;DHT22;378;48.844;9.156;2023-04-03T07:20:10;4.10;99.90
790;DHT22;378;48.844;9.156;2023-04-03T07:22:37;4.20;99.90
790;DHT22;378;48.844;9.156;2023-04-03T07:25:04;4.30;99.90
790;DHT22;378;48.844;9.156;2023-04-03T07:27:33;4.50;99.90
790;DHT22;378;48.844;9.156;2023-04-03T07:30:00;4.70;99.90
790;DHT22;378;48.844;9.156;2023-04-03T07:32:26;4.70;99.90
790;DHT22;378;48.844;9.156;2023-04-03T07:34:54;4.70;99.90
790;DHT22;378;48.844;9.156;2023-04-03T07:37:21;4.80;99.90
790;DHT22;378;48.844;9.156;2023-04-03T07:39:48;4.90;99.90
790;DHT22;378;48.844;9.156;2023-04-03T07:42:16;4.80;99.90
790;DHT22;378;48.844;9.156;2023-04-03T07:44:43;4.90;99.90
790;DHT22;378;48.844;9.156;2023-04-03T07:47:10;5.20;99.90
790;DHT22;378;48.844;9.156;2023-04-03T07:49:37;5.50;99.90
790;DHT22;378;48.844;9.156;2023-04-03T07:52:07;6.00;99.90
790;DHT22;378;48.844;9.156;2023-04-03T07:54:35;5.80;99.90
790;DHT22;378;48.844;9.156;2023-04-03T07:57:02;5.70;99.90
790;DHT22;378;48.844;9.156;2023-04-03T07:59:29;5.90;99.90
790;DHT22;378;48.844;9.156;2023-04-03T08:01:56;6.10;99.90
790;DHT22;378;48.844;9.156;2023-04-03T08:04:23;6.10;99.90
790;DHT22;378;48.844;9.156;2023-04-03T08:06:50;6.40;99.90
790;DHT22;378;48.844;9.156;2023-04-03T08:09:19;6.30;99.90
790;DHT22;378;48.844;9.156;2023-04-03T08:11:45;6.40;99.90
790;DHT22;378;48.844;9.156;2023-04-03T08:14:13;6.10;99.90
790;DHT22;378;48.844;9.156;2023-04-03T08:16:42;6.20;99.90
790;DHT22;378;48.844;9.156;2023-04-03T08:19:09;6.70;99.90
790;DHT22;378;48.844;9.156;2023-04-03T08:21:36;7.20;99.90
790;DHT22;378;48.844;9.156;2023-04-03T08:24:07;7.50;99.90
790;DHT22;378;48.844;9.156;2023-04-03T08:26:36;7.50;99.90
790;DHT22;378;48.844;9.156;2023-04-03T08:29:03;7.30;99.90
790;DHT22;378;48.844;9.156;2023-04-03T08:31:30;7.30;99.90
790;DHT22;378;48.844;9.156;2023-04-03T08:33:57;7.60;99.90
790;DHT22;378;48.844;9.156;2023-04-03T08:36:26;7.70;99.90
790;DHT22;378;48.844;9.156;2023-04-03T08:38:54;7.40;99.90
790;DHT22;378;48.844;9.156;2023-04-03T08:41:29;7.20;99.90
790;DHT22;378;48.844;9.156;2023-04-03T08:44:02;7.00;99.90
790;DHT22;378;48.844;9.156;2023-04-03T08:46:41;7.20;99.90
790;DHT22;378;48.844;9.156;2023-04-03T08:49:13;7.20;99.90
790;DHT22;378;48.844;9.156;2023-04-03T08:51:46;7.30;99.90
790;DHT22;378;48.844;9.156;2023-04-03T08:54:24;7.30;99.90
790;DHT22;378;48.844;9.156;2023-04-03T08:56:55;7.20;99.90
790;DHT22;378;48.844;9.156;2023-04-03T08:59:27;7.50;99.90
790;DHT22;378;48.844;9.156;2023-04-03T09:01:56;7.70;99.90
790;DHT22;378;48.844;9.156;2023-04-03T09:04:26;8.20;99.90
790;DHT22;378;48.844;9.156;2023-04-03T09:06:57;8.30;99.90
790;DHT22;378;48.844;9.156;2023-04-03T09:09:31;8.30;99.90
790;DHT22;378;48.844;9.156;2023-04-03T09:12:06;8.00;99.90
790;DHT22;378;48.844;9.156;2023-04-03T09:14:42;7.70;99.90
790;DHT22;378;48.844;9.156;2023-04-03T09:17:16;7.80;99.90
790;DHT22;378;48.844;9.156;2023-04-03T09:19:54;7.50;99.90
790;DHT22;378;48.844;9.156;2023-04-03T09:22:24;7.10;99.90
790;DHT22;378;48.844;9.156;2023-04-03T09:24:57;6.80;99.90
790;DHT22;378;48.844;9.156;2023-04-03T09:27:26;6.70;99.90
790;DHT22;378;48.844;9.156;2023-04-03T09:29:56;6.70;99.90
790;DHT22;378;48.844;9.156;2023-04-03T09:32:27;6.60;99.90
790;DHT22;378;48.844;9.156;2023-04-03T09:34:57;6.80;99.90
790;DHT22;378;48.844;9.156;2023-04-03T09:37:40;7.10;99.90
790;DHT22;378;48.844;9.156;2023-04-03T09:40:29;7.40;99.90
790;DHT22;378;48.844;9.156;2023-04-03T09:42:58;7.20;99.90
790;DHT22;378;48.844;9.156;2023-04-03T09:45:29;7.30;99.90
790;DHT22;378;48.844;9.156;2023-04-03T09:48:16;7.20;99.90
790;DHT22;378;48.844;9.156;2023-04-03T09:50:59;7.30;99.90
790;DHT22;378;48.844;9.156;2023-04-03T09:53:38;7.10;99.90
790;DHT22;378;48.844;9.156;2023-04-03T09:56:19;6.90;99.90
790;DHT22;378;48.844;9.156;2023-04-03T09:58:48;6.90;99.90
790;DHT22;378;48.844;9.156;2023-04-03T10:01:27;6.90;99.90
790;DHT22;378;48.844;9.156;2023-04-03T10:04:07;7.10;99.90
790;DHT22;378;48.844;9.156;2023-04-03T10:06:36;7.20;99.90
790;DHT22;378;48.844;9.156;2023-04-03T10:09:06;7.00;99.90
790;DHT22;378;48.844;9.156;2023-04-03T10:11:34;6.80;99.90
790;DHT22;378;48.844;9.156;2023-04-03T10:14:02;6.90;99.90
790;DHT22;378;48.844;9.156;2023-04-03T10:16:36;6.80;99.90
790;DHT22;378;48.844;9.156;2023-04-03T10:19:33;6.90;99.90
790;DHT22;378;48.844;9.156;2023-04-03T10:22:04;7.00;99.90
790;DHT22;378;48.844;9.156;2023-04-03T10:24:42;6.70;99.90
790;DHT22;378;48.844;9.156;2023-04-03T10:27:15;6.80;99.90
790;DHT22;378;48.844;9.156;2023-04-03T10:29:50;6.70;99.90
790;DHT22;378;48.844;9.156;2023-04-03T10:32:45;6.60;99.90
790;DHT22;378;48.844;9.156;2023-04-03T10:35:24;6.60;99.90
790;DHT22;378;48.844;9.156;2023-04-03T10:38:01;6.70;99.90
790;DHT22;378;48.844;9.156;2023-04-03T10:40:37;6.60;99.90
790;DHT22;378;48.844;9.156;2023-04-03T10:43:09;6.60;99.90
790;DHT22;378;48.844;9.156;2023-04-03T10:45:51;6.60;99.90
790;DHT22;378;48.844;9.156;2023-04-03T10:48:38;6.60;99.90
790;DHT22;378;48.844;9.156;2023-04-03T10:51:15;6.40;99.90
790;DHT22;378;48.844;9.156;2023-04-03T10:53:50;6.40;99.90
790;DHT22;378;48.844;9.156;2023-04-03T10:56:25;6.40;99.90
790;DHT22;378;48.844;9.156;2023-04-03T10:58:58;6.40;99.90
790;DHT22;378;48.844;9.156;2023-04-03T11:01:31;6.60;99.90
790;DHT22;378;48.844;9.156;2023-04-03T11:04:02;6.80;99.90
790;DHT22;378;48.844;9.156;2023-04-03T11:06:35;7.00;99.90
790;DHT22;378;48.844;9.156;2023-04-03T11:09:10;7.10;99.90
790;DHT22;378;48.844;9.156;2023-04-03T11:11:43;7.20;99.90
790;DHT22;378;48.844;9.156;2023-04-03T11:14:13;7.50;99.90
790;DHT22;378;48.844;9.156;2023-04-03T11:16:44;7.30;99.90
790;DHT22;378;48.844;9.156;2023-04-03T11:19:17;7.10;99.90
790;DHT22;378;48.844;9.156;2023-04-03T11:21:52;7.00;99.90
790;DHT22;378;48.844;9.156;2023-04-03T11:24:24;7.10;99.90
790;DHT22;378;48.844;9.156;2023-04-03T11:26:53;7.00;99.90
790;DHT22;378;48.844;9.156;2023-04-03T11:29:23;6.90;99.90
790;DHT22;378;48.844;9.156;2023-04-03T11:32:09;6.80;99.90
790;DHT22;378;48.844;9.156;2023-04-03T11:34:43;6.70;99.90
790;DHT22;378;48.844;9.156;2023-04-03T11:37:17;6.90;99.90
790;DHT22;378;48.844;9.156;2023-04-03T11:39:52;6.90;99.90
790;DHT22;378;48.844;9.156;2023-04-03T11:42:27;7.00;99.90
790;DHT22;378;48.844;9.156;2023-04-03T11:47:54;6.80;99.90
790;DHT22;378;48.844;9.156;2023-04-03T11:50:39;6.70;99.90
790;DHT22;378;48.844;9.156;2023-04-03T11:53:30;6.80;99.90
790;DHT22;378;48.844;9.156;2023-04-03T11:59:16;6.90;99.90
790;DHT22;378;48.844;9.156;2023-04-03T12:01:46;6.80;99.90
790;DHT22;378;48.844;9.156;2023-04-03T12:04:14;7.10;99.90
790;DHT22;378;48.844;9.156;2023-04-03T12:07:00;7.30;99.90
790;DHT22;378;48.844;9.156;2023-04-03T12:09:54;7.60;99.90
790;DHT22;378;48.844;9.156;2023-04-03T12:12:41;7.90;99.90
790;DHT22;378;48.844;9.156;2023-04-03T12:18:43;8.00;99.90
790;DHT22;378;48.844;9.156;2023-04-03T12:21:10;7.80;99.90
790;DHT22;378;48.844;9.156;2023-04-03T12:24:01;7.80;99.90
790;DHT22;378;48.844;9.156;2023-04-03T12:26:32;7.90;99.90
790;DHT22;378;48.844;9.156;2023-04-03T12:29:07;7.80;99.90
790;DHT22;378;48.844;9.156;2023-04-03T12:31:41;7.70;99.90
790;DHT22;378;48.844;9.156;2023-04-03T12:34:23;7.80;99.90
790;DHT22;378;48.844;9.156;2023-04-03T12:37:00;7.90;99.90
790;DHT22;378;48.844;9.156;2023-04-03T12:39:53;8.00;99.90
790;DHT22;378;48.844;9.156;2023-04-03T12:42:35;8.20;99.90
790;DHT22;378;48.844;9.156;2023-04-03T12:45:17;8.10;99.90
790;DHT22;378;48.844;9.156;2023-04-03T12:47:48;7.80;99.90
790;DHT22;378;48.844;9.156;2023-04-03T12:50:22;7.70;99.90
790;DHT22;378;48.844;9.156;2023-04-03T12:52:56;7.50;99.90
790;DHT22;378;48.844;9.156;2023-04-03T12:55:25;7.30;99.90
790;DHT22;378;48.844;9.156;2023-04-03T12:57:52;7.50;99.90
790;DHT22;378;48.844;9.156;2023-04-03T13:00:31;7.60;99.90
790;DHT22;378;48.844;9.156;2023-04-03T13:03:00;7.50;99.90
790;DHT22;378;48.844;9.156;2023-04-03T13:05:28;7.50;99.90
790;DHT22;378;48.844;9.156;2023-04-03T13:07:58;7.60;99.90
790;DHT22;378;48.844;9.156;2023-04-03T13:10:28;7.60;99.90
790;DHT22;378;48.844;9.156;2023-04-03T13:12:58;7.80;99.90
790;DHT22;378;48.844;9.156;2023-04-03T13:15:27;7.80;99.90
790;DHT22;378;48.844;9.156;2023-04-03T13:17:55;7.90;99.90
790;DHT22;378;48.844;9.156;2023-04-03T13:20:26;7.80;99.90
790;DHT22;378;48.844;9.156;2023-04-03T13:22:57;7.80;99.90
790;DHT22;378;48.844;9.156;2023-04-03T13:25:29;7.70;99.90
790;DHT22;378;48.844;9.156;2023-04-03T13:27:58;7.60;99.90
790;DHT22;378;48.844;9.156;2023-04-03T13:30:28;7.60;99.90
790;DHT22;378;48.844;9.156;2023-04-03T13:32:57;7.50;99.90
790;DHT22;378;48.844;9.156;2023-04-03T13:35:31;7.50;99.90
790;DHT22;378;48.844;9.156;2023-04-03T13:38:00;7.90;99.90
790;DHT22;378;48.844;9.156;2023-04-03T13:40:27;8.20;99.90
790;DHT22;378;48.844;9.156;2023-04-03T13:43:14;8.30;99.90
790;DHT22;378;48.844;9.156;2023-04-03T13:45:56;8.60;99.90
790;DHT22;378;48.844;9.156;2023-04-03T13:48:24;9.00;99.90
790;DHT22;378;48.844;9.156;2023-04-03T13:50:54;9.40;99.90
790;DHT22;378;48.844;9.156;2023-04-03T13:53:23;9.60;99.90
790;DHT22;378;48.844;9.156;2023-04-03T13:56:06;9.60;99.90
790;DHT22;378;48.844;9.156;2023-04-03T13:58:36;9.50;99.90
790;DHT22;378;48.844;9.156;2023-04-03T14:01:11;9.40;99.90
790;DHT22;378;48.844;9.156;2023-04-03T14:03:45;9.30;99.90
790;DHT22;378;48.844;9.156;2023-04-03T14:06:15;8.90;99.90
790;DHT22;378;48.844;9.156;2023-04-03T14:08:43;8.80;99.90
790;DHT22;378;48.844;9.156;2023-04-03T14:11:15;8.60;99.90
790;DHT22;378;48.844;9.156;2023-04-03T14:13:44;8.60;99.90
790;DHT22;378;48.844;9.156;2023-04-03T14:16:15;8.60;99.90
790;DHT22;378;48.844;9.156;2023-04-03T14:18:43;8.80;99.90
790;DHT22;378;48.844;9.156;2023-04-03T14:21:12;8.60;99.90
790;DHT22;378;48.844;9.156;2023-04-03T14:23:39;8.30;99.90
790;DHT22;378;48.844;9.156;2023-04-03T14:26:10;8.00;99.90
790;DHT22;378;48.844;9.156;2023-04-03T14:28:38;7.80;99.90
790;DHT22;378;48.844;9.156;2023-04-03T14:31:07;7.80;99.90
790;DHT22;378;48.844;9.156;2023-04-03T14:33:34;8.10;99.90
790;DHT22;378;48.844;9.156;2023-04-03T14:36:01;8.20;99.90
790;DHT22;378;48.844;9.156;2023-04-03T14:38:30;8.10;99.90
790;DHT22;378;48.844;9.156;2023-04-03T14:40:58;8.30;99.90
790;DHT22;378;48.844;9.156;2023-04-03T14:43:24;8.40;99.90
790;DHT22;378;48.844;9.156;2023-04-03T14:45:52;8.40;99.90
790;DHT22;378;48.844;9.156;2023-04-03T14:48:21;8.60;99.90
790;DHT22;378;48.844;9.156;2023-04-03T14:50:50;8.70;99.90
790;DHT22;378;48.844;9.156;2023-04-03T14:53:18;8.80;99.90
790;DHT22;378;48.844;9.156;2023-04-03T14:55:50;8.90;99.90
790;DHT22;378;48.844;9.156;2023-04-03T14:58:20;8.90;99.90
790;DHT22;378;48.844;9.156;2023-04-03T15:00:47;10.20;99.90
790;DHT22;378;48.844;9.156;2023-04-03T15:03:15;11.50;99.90
790;DHT22;378;48.844;9.156;2023-04-03T15:05:46;11.60;98.90
790;DHT22;378;48.844;9.156;2023-04-03T15:08:18;10.80;98.50
790;DHT22;378;48.844;9.156;2023-04-03T15:10:46;11.00;98.80
790;DHT22;378;48.844;9.156;2023-04-03T15:13:13;11.50;98.90
790;DHT22;378;48.844;9.156;2023-04-03T15:15:41;12.70;98.30
790;DHT22;378;48.844;9.156;2023-04-03T15:18:14;14.00;97.40
790;DHT22;378;48.844;9.156;2023-04-03T15:20:42;14.50;95.30
790;DHT22;378;48.844;9.156;2023-04-03T15:23:11;15.20;94.00
790;DHT22;378;48.844;9.156;2023-04-03T15:25:39;14.40;93.00
790;DHT22;378;48.844;9.156;2023-04-03T15:28:06;12.00;94.30
790;DHT22;378;48.844;9.156;2023-04-03T15:30:36;10.30;96.10
790;DHT22;378;48.844;9.156;2023-04-03T15:33:04;9.00;98.60
790;DHT22;378;48.844;9.156;2023-04-03T15:35:31;8.20;99.90
790;DHT22;378;48.844;9.156;2023-04-03T15:37:58;7.80;99.90
790;DHT22;378;48.844;9.156;2023-04-03T15:40:26;7.50;99.90
790;DHT22;378;48.844;9.156;2023-04-03T15:42:53;7.40;99.90
790;DHT22;378;48.844;9.156;2023-04-03T15:45:20;8.10;99.90
790;DHT22;378;48.844;9.156;2023-04-03T15:47:47;9.60;99.40
790;DHT22;378;48.844;9.156;2023-04-03T15:50:14;11.20;97.80
790;DHT22;378;48.844;9.156;2023-04-03T15:52:41;11.90;95.10
790;DHT22;378;48.844;9.156;2023-04-03T15:55:08;11.70;95.10
790;DHT22;378;48.844;9.156;2023-04-03T15:57:37;11.10;94.60
790;DHT22;378;48.844;9.156;2023-04-03T16:00:04;10.90;95.40
790;DHT22;378;48.844;9.156;2023-04-03T16:02:32;10.90;96.00
790;DHT22;378;48.844;9.156;2023-04-03T16:05:00;11.10;96.20
790;DHT22;378;48.844;9.156;2023-04-03T16:07:26;12.00;95.60
790;DHT22;378;48.844;9.156;2023-04-03T16:09:54;11.80;95.50
790;DHT22;378;48.844;9.156;2023-04-03T16:12:20;11.60;95.50
790;DHT22;378;48.844;9.156;2023-04-03T16:14:49;10.20;96.90
790;DHT22;378;48.844;9.156;2023-04-03T16:17:17;8.90;98.60
790;DHT22;378;48.844;9.156;2023-04-03T16:19:44;7.80;98.40
790;DHT22;378;48.844;9.156;2023-04-03T16:22:11;7.10;99.30
790;DHT22;378;48.844;9.156;2023-04-03T16:24:38;6.80;99.90
790;DHT22;378;48.844;9.156;2023-04-03T16:27:05;6.80;99.90
790;DHT22;378;48.844;9.156;2023-04-03T16:29:31;6.70;99.90
790;DHT22;378;48.844;9.156;2023-04-03T16:32:00;6.70;99.90
790;DHT22;378;48.844;9.156;2023-04-03T16:34:27;6.70;99.90
790;DHT22;378;48.844;9.156;2023-04-03T16:36:55;7.50;99.90
790;DHT22;378;48.844;9.156;2023-04-03T16:39:22;7.70;99.90
790;DHT22;378;48.844;9.156;2023-04-03T16:41:49;7.40;99.90
790;DHT22;378;48.844;9.156;2023-04-03T16:44:16;7.20;99.90
790;DHT22;378;48.844;9.156;2023-04-03T16:46:43;7.10;99.90
790;DHT22;378;48.844;9.156;2023-04-03T16:49:15;7.10;99.90
790;DHT22;378;48.844;9.156;2023-04-03T16:51:42;6.70;99.90
790;DHT22;378;48.844;9.156;2023-04-03T16:54:08;6.50;99.90
790;DHT22;378;48.844;9.156;2023-04-03T16:56:38;6.40;99.90
790;DHT22;378;48.844;9.156;2023-04-03T16:59:05;6.40;99.90
790;DHT22;378;48.844;9.156;2023-04-03T17:01:32;6.30;99.90
790;DHT22;378;48.844;9.156;2023-04-03T17:03:59;6.40;99.90
790;DHT22;378;48.844;9.156;2023-04-03T17:06:28;6.30;99.90
790;DHT22;378;48.844;9.156;2023-04-03T17:08:54;6.30;99.90
790;DHT22;378;48.844;9.156;2023-04-03T17:11:21;6.30;99.90
790;DHT22;378;48.844;9.156;2023-04-03T17:13:48;6.20;99.90
790;DHT22;378;48.844;9.156;2023-04-03T17:16:16;6.10;99.90
790;DHT22;378;48.844;9.156;2023-04-03T17:18:43;6.10;99.90
790;DHT22;378;48.844;9.156;2023-04-03T17:21:11;6.00;99.90